createdAt,value
2018-03-23T00:01:18.412Z,100096.55
2018-03-23T00:03:45.932Z,100096.15
2018-03-23T00:06:13.487Z,100094.03
2018-03-23T00:08:41.021Z,100101.61
2018-03-23T00:11:08.524Z,100094.44
2018-03-23T00:13:36.040Z,100091.91
2018-03-23T00:16:03.566Z,100094.02
2018-03-23T00:18:31.103Z,100089.77
2018-03-23T00:20:58.616Z,100087.25
2018-03-23T00:23:26.190Z,100091.03
2018-03-23T00:25:53.733Z,100087.66
2018-03-23T00:28:21.279Z,100094.02
2018-03-23T00:30:48.830Z,100088.51
2018-03-23T00:33:16.407Z,100089.77
2018-03-23T00:35:43.909Z,100086.39
2018-03-23T00:38:11.424Z,100087.67
2018-03-23T00:40:38.942Z,100091.46
2018-03-23T00:43:06.479Z,100088.52
2018-03-23T00:45:34.002Z,100085.56
2018-03-23T00:48:01.498Z,100082.59
2018-03-23T00:50:29.109Z,100080.89
2018-03-23T00:52:56.667Z,100074.14
2018-03-23T00:55:24.243Z,100080.05
2018-03-23T00:57:51.766Z,100074.14
2018-03-23T01:00:19.283Z,100074.58
2018-03-23T01:02:46.778Z,100069.94
2018-03-23T01:05:14.301Z,100069.48
2018-03-23T01:07:41.845Z,100064.84
2018-03-23T01:10:09.380Z,100066.11
2018-03-23T01:12:36.889Z,100058.50
2018-03-23T01:15:04.380Z,100057.63
2018-03-23T01:17:31.921Z,100069.89
2018-03-23T01:19:59.457Z,100066.95
2018-03-23T01:22:27.004Z,100062.71
2018-03-23T01:24:54.561Z,100065.23
2018-03-23T01:27:22.058Z,100062.30
2018-03-23T01:29:49.638Z,100059.75
2018-03-23T01:32:17.163Z,100064.80
2018-03-23T01:34:44.663Z,100063.10
2018-03-23T01:37:12.180Z,100057.62
2018-03-23T01:39:39.673Z,100054.67
2018-03-23T01:42:07.190Z,100054.64
2018-03-23T01:44:34.739Z,100052.55
2018-03-23T01:47:02.281Z,100051.69
2018-03-23T01:49:29.805Z,100047.86
2018-03-23T01:51:57.352Z,100047.47
2018-03-23T01:54:24.985Z,100036.89
2018-03-23T01:56:52.491Z,100041.97
2018-03-23T01:59:20.009Z,100042.80
2018-03-23T02:01:47.566Z,100041.13
2018-03-23T02:04:15.077Z,100044.09
2018-03-23T02:06:42.582Z,100047.05
2018-03-23T02:09:10.156Z,100040.69
2018-03-23T02:11:37.664Z,100034.37
2018-03-23T02:14:05.184Z,100035.18
2018-03-23T02:16:32.742Z,100036.87
2018-03-23T02:19:00.281Z,100034.34
2018-03-23T02:21:27.790Z,100034.35
2018-03-23T02:23:55.327Z,100036.48
2018-03-23T02:26:22.868Z,100033.52
2018-03-23T02:28:50.391Z,100036.87
2018-03-23T02:31:17.919Z,100039.42
2018-03-23T02:33:45.441Z,100035.19
2018-03-23T02:36:12.979Z,100035.61
2018-03-23T02:38:40.512Z,100032.66
2018-03-23T02:41:08.022Z,100030.55
2018-03-23T02:43:35.546Z,100031.34
2018-03-23T02:46:03.075Z,100029.67
2018-03-23T02:48:30.749Z,100030.07
2018-03-23T02:50:58.245Z,100029.67
2018-03-23T02:53:25.792Z,100025.87
2018-03-23T02:55:53.323Z,100026.28
2018-03-23T02:58:20.826Z,100022.48
2018-03-23T03:00:48.344Z,100024.61
2018-03-23T03:03:15.845Z,100023.31
2018-03-23T03:05:43.387Z,100025.83
2018-03-23T03:08:10.954Z,100023.76
2018-03-23T03:10:38.471Z,100018.24
2018-03-23T03:13:06.008Z,100016.54
2018-03-23T03:15:33.519Z,100020.34
2018-03-23T03:18:01.033Z,100020.76
2018-03-23T03:20:28.525Z,100022.02
2018-03-23T03:22:56.062Z,100018.66
2018-03-23T03:25:23.592Z,100021.16
2018-03-23T03:27:51.215Z,100020.73
2018-03-23T03:30:18.730Z,100016.14
2018-03-23T03:32:46.250Z,100013.61
2018-03-23T03:35:13.774Z,100009.81
2018-03-23T03:37:41.285Z,100009.00
2018-03-23T03:40:08.855Z,100006.46
2018-03-23T03:42:36.378Z,100002.65
2018-03-23T03:45:03.877Z,100006.46
2018-03-23T03:47:31.402Z,100002.66
2018-03-23T03:49:58.916Z,100003.94
2018-03-23T03:52:26.449Z,100004.73
2018-03-23T03:54:53.949Z,100009.41
2018-03-23T03:57:21.471Z,100012.80
2018-03-23T03:59:48.992Z,100005.59
2018-03-23T04:02:16.943Z,100008.55
2018-03-23T04:04:44.440Z,100010.17
2018-03-23T04:07:12.005Z,100006.44
2018-03-23T04:09:39.504Z,100008.98
2018-03-23T04:12:07.071Z,99999.28
2018-03-23T04:14:34.626Z,100000.10
2018-03-23T04:17:02.214Z,100003.06
2018-03-23T04:19:29.720Z,99997.58
2018-03-23T04:21:57.236Z,100001.80
2018-03-23T04:24:25.056Z,99996.72
2018-03-23T04:26:52.612Z,99989.98
2018-03-23T04:29:20.111Z,99988.29
2018-03-23T04:31:47.625Z,99995.03
2018-03-23T04:34:15.120Z,99987.45
2018-03-23T04:36:42.639Z,99984.91
2018-03-23T04:39:10.150Z,99991.22
2018-03-23T04:41:37.658Z,99991.25
2018-03-23T04:44:05.161Z,99982.38
2018-03-23T04:46:32.692Z,99981.49
2018-03-23T04:49:00.220Z,99976.45
2018-03-23T04:51:27.731Z,99977.30
2018-03-23T04:53:55.225Z,99972.23
2018-03-23T04:56:22.791Z,99970.09
2018-03-23T04:58:50.290Z,99967.98
2018-03-23T05:01:17.803Z,99965.02
2018-03-23T05:03:45.327Z,99967.55
2018-03-23T05:06:12.852Z,99967.97
2018-03-23T05:08:40.360Z,99965.88
2018-03-23T05:11:07.872Z,99956.58
2018-03-23T05:13:35.381Z,99949.42
2018-03-23T05:16:02.900Z,99949.00
2018-03-23T05:18:30.418Z,99946.89
2018-03-23T05:20:57.945Z,99945.66
2018-03-23T05:23:26.380Z,99946.89
2018-03-23T05:25:53.904Z,99933.37
2018-03-23T05:28:21.397Z,99932.17
2018-03-23T05:30:48.914Z,99932.59
2018-03-23T05:33:16.413Z,99937.67
2018-03-23T05:35:43.933Z,99931.75
2018-03-23T05:38:11.419Z,99936.41
2018-03-23T05:40:39.016Z,99933.04
2018-03-23T05:43:06.471Z,99934.70
2018-03-23T05:45:34.011Z,99934.28
2018-03-23T05:48:01.571Z,99930.90
2018-03-23T05:50:29.109Z,99938.48
2018-03-23T05:52:56.601Z,99938.08
2018-03-23T05:55:25.064Z,99941.05
2018-03-23T05:57:53.004Z,99940.63
2018-03-23T06:00:20.522Z,99936.81
2018-03-23T06:02:48.049Z,99939.37
2018-03-23T06:05:15.570Z,99939.34
2018-03-23T06:07:43.094Z,99938.11
2018-03-23T06:10:10.591Z,99938.09
2018-03-23T06:12:38.113Z,99943.58
2018-03-23T06:15:05.639Z,99946.54
2018-03-23T06:17:33.175Z,99947.81
2018-03-23T06:20:00.685Z,99935.59
2018-03-23T06:22:28.214Z,99937.28
2018-03-23T06:24:55.751Z,99933.48
2018-03-23T06:27:23.289Z,99936.86
2018-03-23T06:29:50.822Z,99933.52
2018-03-23T06:32:18.352Z,99932.67
2018-03-23T06:34:45.972Z,99930.15
2018-03-23T06:37:13.479Z,99935.20
2018-03-23T06:39:41.008Z,99932.67
2018-03-23T06:42:08.529Z,99933.94
2018-03-23T06:44:36.043Z,99930.14
2018-03-23T06:47:03.634Z,99937.31
2018-03-23T06:49:31.156Z,99936.06
2018-03-23T06:51:58.679Z,99936.06
2018-03-23T06:54:26.189Z,99935.64
2018-03-23T06:56:53.719Z,99932.67
2018-03-23T06:59:21.247Z,99931.81
2018-03-23T07:01:48.779Z,99936.86
2018-03-23T07:04:16.282Z,99937.30
2018-03-23T07:06:43.793Z,99943.23
2018-03-23T07:09:11.322Z,99942.80
2018-03-23T07:11:38.832Z,99951.23
2018-03-23T07:14:06.369Z,99949.95
2018-03-23T07:16:33.875Z,99948.73
2018-03-23T07:19:01.381Z,99952.94
2018-03-23T07:21:28.890Z,99951.66
2018-03-23T07:23:56.403Z,99946.59
2018-03-23T07:26:23.930Z,99946.19
2018-03-23T07:28:51.431Z,99944.48
2018-03-23T07:31:18.931Z,99951.23
2018-03-23T07:33:46.446Z,99950.82
2018-03-23T07:36:13.949Z,99945.30
2018-03-23T07:38:41.459Z,99947.02
2018-03-23T07:41:08.971Z,99944.45
2018-03-23T07:43:36.456Z,99941.91
2018-03-23T07:46:04.017Z,99949.50
2018-03-23T07:48:31.568Z,99946.09
2018-03-23T07:50:59.088Z,99946.94
2018-03-23T07:53:26.617Z,99940.17
2018-03-23T07:55:54.260Z,99938.11
2018-03-23T07:58:21.771Z,99938.92
2018-03-23T08:00:49.288Z,99932.97
2018-03-23T08:03:16.823Z,99929.55
2018-03-23T08:05:44.320Z,99935.45
2018-03-23T08:08:11.837Z,99938.77
2018-03-23T08:10:39.353Z,99936.62
2018-03-23T08:13:06.863Z,99934.01
2018-03-23T08:15:34.422Z,99930.17
2018-03-23T08:18:01.943Z,99932.19
2018-03-23T08:20:29.455Z,99933.03
2018-03-23T08:22:56.995Z,99933.06
2018-03-23T08:25:25.115Z,99931.47
2018-03-23T08:27:52.647Z,99939.96
2018-03-23T08:30:20.192Z,99939.91
2018-03-23T08:32:47.718Z,99936.47
2018-03-23T08:35:15.223Z,99932.19
2018-03-23T08:37:42.735Z,99930.09
2018-03-23T08:40:10.231Z,99933.96
2018-03-23T08:42:37.736Z,99931.00
2018-03-23T08:45:05.268Z,99927.56
2018-03-23T08:47:32.780Z,99925.48
2018-03-23T08:50:00.315Z,99923.25
2018-03-23T08:52:27.840Z,99922.88
2018-03-23T08:54:55.361Z,99927.55
2018-03-23T08:57:22.853Z,99920.62
2018-03-23T08:59:50.426Z,99921.86
2018-03-23T09:02:17.959Z,99914.11
2018-03-23T09:04:45.471Z,99915.74
2018-03-23T09:07:13.157Z,99915.91
2018-03-23T09:09:40.704Z,99914.06
2018-03-23T09:12:08.288Z,99913.55
2018-03-23T09:14:35.775Z,99915.84
2018-03-23T09:17:03.280Z,99908.53
2018-03-23T09:19:30.783Z,99914.22
2018-03-23T09:21:58.327Z,99911.50
2018-03-23T09:24:25.960Z,99911.81
2018-03-23T09:26:53.484Z,99914.50
2018-03-23T09:29:21.022Z,99917.97
2018-03-23T09:31:48.512Z,99914.03
2018-03-23T09:34:16.005Z,99911.95
2018-03-23T09:36:43.513Z,99905.26
2018-03-23T09:39:11.023Z,99897.23
2018-03-23T09:41:38.544Z,99895.47
2018-03-23T09:44:06.081Z,99898.25
2018-03-23T09:46:33.684Z,99904.44
2018-03-23T09:49:01.192Z,99894.20
2018-03-23T09:51:28.738Z,99891.88
2018-03-23T09:53:56.280Z,99888.86
2018-03-23T09:56:23.789Z,99886.68
2018-03-23T09:58:51.276Z,99881.39
2018-03-23T10:01:18.756Z,99880.63
2018-03-23T10:03:46.383Z,99887.44
2018-03-23T10:06:13.956Z,99873.34
2018-03-23T10:08:41.485Z,99870.41
2018-03-23T10:11:09.032Z,99870.34
2018-03-23T10:13:36.526Z,99862.36
2018-03-23T10:16:04.036Z,99857.53
2018-03-23T10:18:31.617Z,99853.20
2018-03-23T10:20:59.213Z,99855.06
2018-03-23T10:23:26.699Z,99849.83
2018-03-23T10:25:54.211Z,99847.30
2018-03-23T10:28:21.732Z,99845.86
2018-03-23T10:30:49.312Z,99845.88
2018-03-23T10:33:16.816Z,99845.40
2018-03-23T10:35:44.320Z,99843.71
2018-03-23T10:38:11.832Z,99843.96
2018-03-23T10:40:39.316Z,99841.59
2018-03-23T10:43:06.848Z,99841.72
2018-03-23T10:45:34.379Z,99842.84
2018-03-23T10:48:01.878Z,99840.63
2018-03-23T10:50:29.436Z,99842.55
2018-03-23T10:52:56.951Z,99835.77
2018-03-23T10:55:24.589Z,99834.30
2018-03-23T10:57:52.181Z,99834.68
2018-03-23T11:00:25.210Z,99831.72
2018-03-23T11:02:54.724Z,99831.94
2018-03-23T11:05:22.260Z,99833.27
2018-03-23T11:07:49.770Z,99825.78
2018-03-23T11:10:17.279Z,99822.75
2018-03-23T11:12:44.823Z,99819.84
2018-03-23T11:15:12.370Z,99816.70
2018-03-23T11:17:39.924Z,99811.75
2018-03-23T11:20:07.471Z,99802.91
2018-03-23T11:22:34.965Z,99800.26
2018-03-23T11:25:02.484Z,99792.17
2018-03-23T11:27:30.039Z,99787.64
2018-03-23T11:29:57.530Z,99786.23
2018-03-23T11:32:25.103Z,99790.23
2018-03-23T11:34:52.650Z,99782.28
2018-03-23T11:37:20.168Z,99778.73
2018-03-23T11:39:47.698Z,99784.08
2018-03-23T11:42:15.292Z,99782.41
2018-03-23T11:44:42.832Z,99789.59
2018-03-23T11:47:10.355Z,99788.11
2018-03-23T11:49:37.973Z,99776.77
2018-03-23T11:52:05.671Z,99783.14
2018-03-23T11:54:33.209Z,99770.81
2018-03-23T11:57:00.992Z,99780.89
2018-03-23T11:59:28.530Z,99778.95
2018-03-23T12:01:56.063Z,99772.80
2018-03-23T12:04:23.573Z,99762.80
2018-03-23T12:06:51.101Z,99765.64
2018-03-23T12:09:18.605Z,99761.72
2018-03-23T12:11:46.128Z,99756.77
2018-03-23T12:14:14.382Z,99752.85
2018-03-23T12:16:41.930Z,99750.22
2018-03-23T12:19:09.636Z,99747.48
2018-03-23T12:21:37.125Z,99739.02
2018-03-23T12:24:04.645Z,99745.59
2018-03-23T12:26:32.144Z,99741.89
2018-03-23T12:28:59.634Z,99740.28
2018-03-23T12:31:27.160Z,99736.27
2018-03-23T12:33:54.646Z,99725.16
2018-03-23T12:36:22.194Z,99728.21
2018-03-23T12:38:49.716Z,99721.23
2018-03-23T12:41:17.209Z,99725.47
2018-03-23T12:43:44.708Z,99725.05
2018-03-23T12:46:12.481Z,99722.52
2018-03-23T12:48:40.008Z,99718.56
2018-03-23T12:51:08.363Z,99717.72
2018-03-23T12:53:35.876Z,99709.52
2018-03-23T12:56:03.376Z,99710.83
2018-03-23T12:58:30.912Z,99705.94
2018-03-23T13:00:58.463Z,99692.81
2018-03-23T13:03:25.979Z,99687.94
2018-03-23T13:05:53.823Z,99686.24
2018-03-23T13:08:22.031Z,99685.08
2018-03-23T13:10:49.964Z,99679.59
2018-03-23T13:13:17.504Z,99681.90
2018-03-23T13:15:45.007Z,99676.02
2018-03-23T13:18:12.588Z,99673.67
2018-03-23T13:20:40.131Z,99668.47
2018-03-23T13:23:07.872Z,99658.92
2018-03-23T13:25:35.367Z,99665.16
2018-03-23T13:28:03.701Z,99655.85
2018-03-23T13:30:31.222Z,99660.74
2018-03-23T13:32:58.735Z,99660.97
2018-03-23T13:35:26.252Z,99656.22
2018-03-23T13:37:53.755Z,99658.25
2018-03-23T13:40:21.248Z,99660.31
2018-03-23T13:42:48.767Z,99659.89
2018-03-23T13:45:16.312Z,99653.95
2018-03-23T13:47:43.823Z,99649.95
2018-03-23T13:50:11.380Z,99649.42
2018-03-23T13:52:39.430Z,99639.02
2018-03-23T13:55:06.950Z,99632.31
2018-03-23T13:57:34.471Z,99633.59
2018-03-23T14:00:01.990Z,99631.45
2018-03-23T14:02:30.312Z,99626.87
2018-03-23T14:04:57.748Z,99627.14
2018-03-23T14:07:25.267Z,99624.68
2018-03-23T14:09:53.078Z,99621.92
2018-03-23T14:12:20.584Z,99623.91
2018-03-23T14:14:48.092Z,99629.91
2018-03-23T14:17:15.617Z,99626.89
2018-03-23T14:19:43.139Z,99622.32
2018-03-23T14:22:10.650Z,99617.83
2018-03-23T14:24:38.174Z,99612.02
2018-03-23T14:27:05.677Z,99615.20
2018-03-23T14:29:33.206Z,99608.33
2018-03-23T14:32:00.730Z,99604.40
2018-03-23T14:34:28.327Z,99617.27
2018-03-23T14:36:55.835Z,99611.80
2018-03-23T14:39:23.367Z,99605.77
2018-03-23T14:41:51.701Z,99608.30
2018-03-23T14:44:19.560Z,99608.98
2018-03-23T14:46:47.071Z,99613.14
2018-03-23T14:49:14.603Z,99611.39
2018-03-23T14:51:42.089Z,99608.86
2018-03-23T14:54:09.656Z,99601.33
2018-03-23T14:56:37.266Z,99599.57
2018-03-23T14:59:10.350Z,99596.58
2018-03-23T15:01:37.829Z,99593.61
2018-03-23T15:04:05.393Z,99594.25
2018-03-23T15:06:35.190Z,99596.83
2018-03-23T15:09:02.740Z,99589.72
2018-03-23T15:11:30.978Z,99594.89
2018-03-23T15:14:10.939Z,99589.91
2018-03-23T15:16:38.463Z,99586.59
2018-03-23T15:19:05.960Z,99587.73
2018-03-23T15:21:35.138Z,99578.38
2018-03-23T15:24:02.939Z,99572.86
2018-03-23T15:26:34.621Z,99577.74
2018-03-23T15:29:05.345Z,99578.45
2018-03-23T15:31:32.892Z,99579.53
2018-03-23T15:34:09.777Z,99576.05
2018-03-23T15:36:42.059Z,99581.85
2018-03-23T15:39:09.687Z,99572.02
2018-03-23T15:41:37.182Z,99566.15
2018-03-23T15:44:04.693Z,99562.58
2018-03-23T15:46:33.109Z,99565.36
2018-03-23T15:49:00.689Z,99565.03
2018-03-23T15:51:28.256Z,99559.87
2018-03-23T15:53:55.733Z,99561.59
2018-03-23T15:56:23.294Z,99557.16
2018-03-23T15:58:51.800Z,99553.45
2018-03-23T16:01:19.312Z,99551.83
2018-03-23T16:03:47.048Z,99560.92
2018-03-23T16:06:15.990Z,99552.17
2018-03-23T16:08:45.544Z,99551.92
2018-03-23T16:11:15.653Z,99554.47
2018-03-23T16:13:43.204Z,99559.99
2018-03-23T16:16:11.555Z,99563.86
2018-03-23T16:18:39.093Z,99562.83
2018-03-23T16:21:06.606Z,99564.97
2018-03-23T16:23:34.127Z,99559.20
2018-03-23T16:26:01.645Z,99555.62
2018-03-23T16:28:30.860Z,99556.64
2018-03-23T16:30:59.025Z,99553.67
2018-03-23T16:33:26.607Z,99558.17
2018-03-23T16:35:54.130Z,99557.56
2018-03-23T16:38:21.644Z,99560.69
2018-03-23T16:40:51.148Z,99554.31
2018-03-23T16:43:18.895Z,99553.57
2018-03-23T16:45:46.415Z,99559.00
2018-03-23T16:48:13.925Z,99559.48
2018-03-23T16:50:41.443Z,99560.37
2018-03-23T16:53:08.985Z,99553.83
2018-03-23T16:55:36.591Z,99562.67
2018-03-23T16:58:04.096Z,99550.29
2018-03-23T17:00:31.677Z,99556.35
2018-03-23T17:02:59.272Z,99552.05
2018-03-23T17:05:31.037Z,99551.98
2018-03-23T17:08:00.934Z,99555.70
2018-03-23T17:10:28.495Z,99555.23
2018-03-23T17:12:56.222Z,99550.95
2018-03-23T17:15:23.818Z,99553.50
2018-03-23T17:17:51.321Z,99551.97
2018-03-23T17:20:19.470Z,99552.45
2018-03-23T17:22:47.025Z,99553.94
2018-03-23T17:25:14.632Z,99554.23
2018-03-23T17:27:42.220Z,99564.83
2018-03-23T17:30:10.130Z,99557.79
2018-03-23T17:32:37.668Z,99563.02
2018-03-23T17:35:05.165Z,99555.86
2018-03-23T17:37:32.718Z,99554.20
2018-03-23T17:40:00.223Z,99559.75
2018-03-23T17:42:27.748Z,99556.92
2018-03-23T17:44:55.240Z,99554.70
2018-03-23T17:47:22.752Z,99563.23
2018-03-23T17:49:50.261Z,99554.42
2018-03-23T17:52:18.431Z,99559.08
2018-03-23T17:54:46.242Z,99559.14
2018-03-23T17:57:16.141Z,99562.25
2018-03-23T17:59:44.374Z,99562.69
2018-03-23T18:02:12.357Z,99556.34
2018-03-23T18:04:40.157Z,99559.39
2018-03-23T18:07:07.818Z,99567.23
2018-03-23T18:09:35.331Z,99569.47
2018-03-23T18:12:02.875Z,99560.83
2018-03-23T18:14:32.995Z,99565.67
2018-03-23T18:17:00.627Z,99567.81
2018-03-23T18:19:28.159Z,99569.58
2018-03-23T18:21:55.894Z,99568.83
2018-03-23T18:24:23.405Z,99572.38
2018-03-23T18:26:50.981Z,99568.12
2018-03-23T18:29:18.494Z,99570.70
2018-03-23T18:31:46.008Z,99567.39
2018-03-23T18:34:13.522Z,99575.97
2018-03-23T18:36:41.142Z,99567.75
2018-03-23T18:39:08.631Z,99570.36
2018-03-23T18:41:36.190Z,99573.89
2018-03-23T18:44:05.764Z,99574.70
2018-03-23T18:46:34.294Z,99580.23
2018-03-23T18:49:01.797Z,99572.25
2018-03-23T18:51:29.298Z,99577.39
2018-03-23T18:53:56.816Z,99576.56
2018-03-23T18:56:24.348Z,99574.87
2018-03-23T18:58:51.856Z,99572.38
2018-03-23T19:01:19.431Z,99568.09
2018-03-23T19:03:47.776Z,99568.57
2018-03-23T19:06:15.361Z,99569.50
2018-03-23T19:08:42.866Z,99578.05
2018-03-23T19:11:10.428Z,99576.38
2018-03-23T19:13:37.970Z,99580.34
2018-03-23T19:16:05.634Z,99583.83
2018-03-23T19:18:33.344Z,99584.30
2018-03-23T19:21:01.005Z,99579.38
2018-03-23T19:23:29.486Z,99584.07
2018-03-23T19:25:57.003Z,99585.04
2018-03-23T19:28:25.481Z,99573.66
2018-03-23T19:30:53.354Z,99581.81
2018-03-23T19:33:20.899Z,99582.78
2018-03-23T19:35:48.446Z,99574.83
2018-03-23T19:38:16.018Z,99571.11
2018-03-23T19:40:43.534Z,99573.42
2018-03-23T19:43:11.070Z,99570.83
2018-03-23T19:45:38.856Z,99576.36
2018-03-23T19:48:06.501Z,99577.31
2018-03-23T19:50:34.090Z,99575.61
2018-03-23T19:53:01.812Z,99569.70
2018-03-23T19:55:29.463Z,99571.15
2018-03-23T19:57:57.028Z,99567.28
2018-03-23T20:00:24.621Z,99561.84
2018-03-23T20:02:52.205Z,99567.11
2018-03-23T20:05:19.837Z,99560.73
2018-03-23T20:07:47.441Z,99560.80
2018-03-23T20:10:14.904Z,99566.83
2018-03-23T20:12:42.500Z,99552.45
2018-03-23T20:15:10.037Z,99568.27
2018-03-23T20:17:43.095Z,99561.13
2018-03-23T20:20:16.226Z,99562.92
2018-03-23T20:22:43.844Z,99567.55
2018-03-23T20:25:11.398Z,99579.06
2018-03-23T20:27:44.534Z,99575.00
2018-03-23T20:30:12.046Z,99565.25
2018-03-23T20:32:39.695Z,99570.38
2018-03-23T20:35:07.239Z,99568.28
2018-03-23T20:37:34.812Z,99559.81
2018-03-23T20:40:05.721Z,99560.38
2018-03-23T20:42:33.369Z,99551.09
2018-03-23T20:45:00.943Z,99555.73
2018-03-23T20:47:28.446Z,99560.45
2018-03-23T20:49:59.927Z,99552.89
2018-03-23T20:52:27.487Z,99559.23
2018-03-23T20:54:55.799Z,99555.88
2018-03-23T20:57:23.370Z,99557.17
2018-03-23T20:59:51.002Z,99560.96
2018-03-23T21:02:18.536Z,99557.27
2018-03-23T21:04:46.051Z,99557.24
2018-03-23T21:07:13.777Z,99558.53
2018-03-23T21:09:41.389Z,99553.03
2018-03-23T21:12:09.071Z,99553.07
2018-03-23T21:14:36.658Z,99550.17
2018-03-23T21:17:04.277Z,99540.91
2018-03-23T21:19:31.863Z,99549.38
2018-03-23T21:21:59.471Z,99554.91
2018-03-23T21:24:27.081Z,99550.23
2018-03-23T21:26:54.661Z,99555.33
2018-03-23T21:29:22.347Z,99551.17
2018-03-23T21:31:51.743Z,99551.62
2018-03-23T21:34:19.285Z,99546.55
2018-03-23T21:36:46.924Z,99547.42
2018-03-23T21:39:14.637Z,99552.92
2018-03-23T21:41:42.208Z,99553.79
2018-03-23T21:44:09.943Z,99548.73
2018-03-23T21:46:37.500Z,99547.53
2018-03-23T21:49:05.022Z,99544.95
2018-03-23T21:51:32.722Z,99543.72
2018-03-23T21:54:00.259Z,99546.68
2018-03-23T21:56:28.017Z,99539.89
2018-03-23T21:58:55.635Z,99543.72
2018-03-23T22:01:23.332Z,99541.21
2018-03-23T22:03:50.831Z,99546.76
2018-03-23T22:06:18.447Z,99535.34
2018-03-23T22:08:46.930Z,99542.05
2018-03-23T22:11:14.479Z,99532.34
2018-03-23T22:13:41.973Z,99539.94
2018-03-23T22:16:09.564Z,99536.18
2018-03-23T22:18:37.147Z,99532.83
2018-03-23T22:21:04.729Z,99532.86
2018-03-23T22:23:32.273Z,99539.66
2018-03-23T22:25:59.836Z,99539.70
2018-03-23T22:28:27.619Z,99545.63
2018-03-23T22:30:55.170Z,99550.28
2018-03-23T22:33:23.430Z,99541.05
2018-03-23T22:35:50.992Z,99534.70
2018-03-23T22:38:18.564Z,99538.08
2018-03-23T22:40:46.207Z,99535.95
2018-03-23T22:43:14.550Z,99531.73
2018-03-23T22:45:42.081Z,99535.16
2018-03-23T22:48:09.574Z,99527.96
2018-03-23T22:50:37.850Z,99531.80
2018-03-23T22:53:05.441Z,99527.61
2018-03-23T22:55:33.013Z,99527.19
2018-03-23T22:58:00.564Z,99529.25
2018-03-23T23:00:28.225Z,99529.25
2018-03-23T23:02:55.774Z,99533.52
2018-03-23T23:05:23.312Z,99522.09
2018-03-23T23:07:50.858Z,99524.66
2018-03-23T23:10:19.549Z,99522.16
2018-03-23T23:12:47.318Z,99520.44
2018-03-23T23:15:14.968Z,99523.38
2018-03-23T23:17:42.570Z,99525.05
2018-03-23T23:20:10.160Z,99527.56
2018-03-23T23:22:37.681Z,99527.19
2018-03-23T23:25:05.207Z,99520.86
2018-03-23T23:27:32.900Z,99529.82
2018-03-23T23:30:00.432Z,99533.17
2018-03-23T23:32:28.104Z,99528.95
2018-03-23T23:34:55.745Z,99528.99
2018-03-23T23:37:23.549Z,99522.20
2018-03-23T23:39:51.072Z,99529.37
2018-03-23T23:42:18.789Z,99533.63
2018-03-23T23:44:46.457Z,99526.47
2018-03-23T23:47:13.953Z,99524.00
2018-03-23T23:49:41.835Z,99517.64
2018-03-23T23:52:09.569Z,99515.11
2018-03-23T23:54:37.143Z,99504.60
2018-03-23T23:57:04.640Z,99516.84
2018-03-23T23:59:32.406Z,99519.80
